createdAt,value
2019-03-21T00:01:52.461Z,11.12
2019-03-21T00:04:20.949Z,11.90
2019-03-21T00:06:49.450Z,10.50
2019-03-21T00:09:19.397Z,10.53
2019-03-21T00:12:03.147Z,9.17
2019-03-21T00:14:37.240Z,8.43
2019-03-21T00:17:08.777Z,8.80
2019-03-21T00:19:37.331Z,9.20
2019-03-21T00:22:06.156Z,9.50
2019-03-21T00:24:34.720Z,9.70
2019-03-21T00:27:03.328Z,9.65
2019-03-21T00:29:31.902Z,8.90
2019-03-21T00:32:00.444Z,8.60
2019-03-21T00:34:28.941Z,8.30
2019-03-21T00:36:57.484Z,8.93
2019-03-21T00:39:32.671Z,8.30
2019-03-21T00:41:56.175Z,8.10
2019-03-21T00:44:24.662Z,8.53
2019-03-21T00:46:53.222Z,8.50
2019-03-21T00:49:21.789Z,8.33
2019-03-21T00:51:50.263Z,9.47
2019-03-21T00:54:19.385Z,9.27
2019-03-21T00:56:47.940Z,10.00
2019-03-21T00:59:16.490Z,11.20
2019-03-21T01:01:44.981Z,15.70
2019-03-21T01:04:13.465Z,12.28
2019-03-21T01:06:42.031Z,9.35
2019-03-21T01:09:13.881Z,10.90
2019-03-21T01:11:42.446Z,10.82
2019-03-21T01:14:11.028Z,9.47
2019-03-21T01:16:39.585Z,9.27
2019-03-21T01:19:08.084Z,9.33
2019-03-21T01:21:36.639Z,8.30
2019-03-21T01:24:05.368Z,10.82
2019-03-21T01:26:33.949Z,10.97
2019-03-21T01:29:02.502Z,10.73
2019-03-21T01:31:30.998Z,9.70
2019-03-21T01:33:59.555Z,8.70
2019-03-21T01:36:28.990Z,8.53
2019-03-21T01:38:57.529Z,8.60
2019-03-21T01:41:26.088Z,9.05
2019-03-21T01:43:54.562Z,8.90
2019-03-21T01:46:26.649Z,9.10
2019-03-21T01:48:55.206Z,8.18
2019-03-21T01:51:23.845Z,8.13
2019-03-21T01:53:53.931Z,7.87
2019-03-21T01:56:22.486Z,7.60
2019-03-21T01:58:51.426Z,7.20
2019-03-21T02:01:19.974Z,8.60
2019-03-21T02:03:48.545Z,8.73
2019-03-21T02:06:17.112Z,9.33
2019-03-21T02:08:45.591Z,8.50
2019-03-21T02:11:14.185Z,8.80
2019-03-21T02:13:42.740Z,9.00
2019-03-21T02:16:11.317Z,9.25
2019-03-21T02:18:39.864Z,8.90
2019-03-21T02:21:08.399Z,8.38
2019-03-21T02:23:36.970Z,8.43
2019-03-21T02:26:05.576Z,7.90
2019-03-21T02:28:34.069Z,7.83
2019-03-21T02:31:02.613Z,7.70
2019-03-21T02:33:45.114Z,7.80
2019-03-21T02:36:14.253Z,9.23
2019-03-21T02:38:45.703Z,8.33
2019-03-21T02:41:16.069Z,8.13
2019-03-21T02:43:44.562Z,8.50
2019-03-21T02:46:13.114Z,7.95
2019-03-21T02:48:41.670Z,8.05
2019-03-21T02:51:10.290Z,8.60
2019-03-21T02:53:38.839Z,8.10
2019-03-21T02:56:17.003Z,8.10
2019-03-21T02:58:45.555Z,7.90
2019-03-21T03:01:14.166Z,8.20
2019-03-21T03:03:42.741Z,8.23
2019-03-21T03:06:11.277Z,8.60
2019-03-21T03:08:39.886Z,8.30
2019-03-21T03:11:23.544Z,8.20
2019-03-21T03:13:52.290Z,8.63
2019-03-21T03:16:22.670Z,8.10
2019-03-21T03:18:51.408Z,7.45
2019-03-21T03:21:19.940Z,7.73
2019-03-21T03:23:48.497Z,7.10
2019-03-21T03:26:17.070Z,8.00
2019-03-21T03:28:47.313Z,6.85
2019-03-21T03:31:15.885Z,7.63
2019-03-21T03:33:44.967Z,7.30
2019-03-21T03:36:15.442Z,8.00
2019-03-21T03:38:44.024Z,7.60
2019-03-21T03:41:14.690Z,7.70
2019-03-21T03:43:43.298Z,7.60
2019-03-21T03:46:11.831Z,7.53
2019-03-21T03:48:40.813Z,8.40
2019-03-21T03:51:09.365Z,7.40
2019-03-21T03:53:37.932Z,7.62
2019-03-21T03:56:06.461Z,7.83
2019-03-21T03:58:43.404Z,7.70
2019-03-21T04:01:12.154Z,8.20
2019-03-21T04:03:40.723Z,8.13
2019-03-21T04:06:09.263Z,8.23
2019-03-21T04:08:37.830Z,7.60
2019-03-21T04:11:06.450Z,8.17
2019-03-21T04:13:35.387Z,8.00
2019-03-21T04:16:04.005Z,8.30
2019-03-21T04:18:32.563Z,7.90
2019-03-21T04:21:04.513Z,8.35
2019-03-21T04:23:33.074Z,7.37
2019-03-21T04:26:10.348Z,7.63
2019-03-21T04:28:39.056Z,8.57
2019-03-21T04:31:08.077Z,7.47
2019-03-21T04:33:36.639Z,7.55
2019-03-21T04:36:05.177Z,7.60
2019-03-21T04:38:33.669Z,7.50
2019-03-21T04:41:02.236Z,7.90
2019-03-21T04:43:30.817Z,7.42
2019-03-21T04:46:03.667Z,7.50
2019-03-21T04:48:29.578Z,6.83
2019-03-21T04:50:58.116Z,9.08
2019-03-21T04:53:26.613Z,15.33
2019-03-21T04:55:55.102Z,21.00
2019-03-21T04:58:23.673Z,46.23
2019-03-21T05:00:54.461Z,29.77
2019-03-21T05:03:30.595Z,24.30
2019-03-21T05:05:59.630Z,26.10
2019-03-21T05:08:28.216Z,22.67
2019-03-21T05:10:56.877Z,44.65
2019-03-21T05:13:25.465Z,28.38
2019-03-21T05:15:54.811Z,14.80
2019-03-21T05:18:41.413Z,11.13
2019-03-21T05:21:13.052Z,17.73
2019-03-21T05:23:41.616Z,12.87
2019-03-21T05:26:10.157Z,11.53
2019-03-21T05:28:38.641Z,7.13
2019-03-21T05:31:10.290Z,6.50
2019-03-21T05:33:38.857Z,6.65
2019-03-21T05:36:07.325Z,7.40
2019-03-21T05:38:35.810Z,6.10
2019-03-21T05:41:04.279Z,6.00
2019-03-21T05:43:52.818Z,5.75
2019-03-21T05:46:26.439Z,6.00
2019-03-21T05:48:51.654Z,5.93
2019-03-21T05:51:20.212Z,6.70
2019-03-21T05:53:48.776Z,10.50
2019-03-21T05:56:17.247Z,8.40
2019-03-21T05:58:45.800Z,7.60
2019-03-21T06:01:14.681Z,5.90
2019-03-21T06:03:51.242Z,6.80
2019-03-21T06:06:25.539Z,7.10
2019-03-21T06:08:54.100Z,7.35
2019-03-21T06:11:22.914Z,6.80
2019-03-21T06:13:51.450Z,6.50
2019-03-21T06:16:20.028Z,6.43
2019-03-21T06:19:18.961Z,6.90
2019-03-21T06:22:11.743Z,7.97
2019-03-21T06:25:01.619Z,7.03
2019-03-21T06:27:32.873Z,6.90
2019-03-21T06:30:01.435Z,6.75
2019-03-21T06:32:30.203Z,7.20
2019-03-21T06:34:58.780Z,7.10
2019-03-21T06:37:28.922Z,7.47
2019-03-21T06:39:57.747Z,7.77
2019-03-21T06:42:26.310Z,7.20
2019-03-21T06:45:14.231Z,7.15
2019-03-21T06:47:42.776Z,7.10
2019-03-21T06:50:11.346Z,6.85
2019-03-21T06:52:39.809Z,7.20
2019-03-21T06:55:08.372Z,6.80
2019-03-21T06:57:37.293Z,6.63
2019-03-21T07:00:08.017Z,6.43
2019-03-21T07:02:36.493Z,7.27
2019-03-21T07:05:07.089Z,7.17
2019-03-21T07:07:35.677Z,6.60
2019-03-21T07:10:06.981Z,7.28
2019-03-21T07:12:35.447Z,7.05
2019-03-21T07:15:07.093Z,7.33
2019-03-21T07:17:35.635Z,7.70
2019-03-21T07:20:09.220Z,8.13
2019-03-21T07:22:38.621Z,7.87
2019-03-21T07:25:08.653Z,8.53
2019-03-21T07:27:37.213Z,7.60
2019-03-21T07:30:08.617Z,7.78
2019-03-21T07:32:37.230Z,7.77
2019-03-21T07:35:08.022Z,7.50
2019-03-21T07:37:36.609Z,5.90
2019-03-21T07:40:11.339Z,4.95
2019-03-21T07:42:39.906Z,5.25
2019-03-21T07:45:10.892Z,5.10
2019-03-21T07:47:39.904Z,5.03
2019-03-21T07:50:13.321Z,5.33
2019-03-21T07:52:41.929Z,5.70
2019-03-21T07:55:11.546Z,5.43
2019-03-21T07:57:40.102Z,4.95
2019-03-21T08:00:20.609Z,4.87
2019-03-21T08:02:49.473Z,5.30
2019-03-21T08:05:17.994Z,4.80
2019-03-21T08:07:46.553Z,4.97
2019-03-21T08:10:15.269Z,4.65
2019-03-21T08:12:43.829Z,5.30
2019-03-21T08:15:15.388Z,4.85
2019-03-21T08:17:44.025Z,4.73
2019-03-21T08:20:14.720Z,5.50
2019-03-21T08:22:43.337Z,5.17
2019-03-21T08:25:12.250Z,5.12
2019-03-21T08:27:41.099Z,5.17
2019-03-21T08:30:24.698Z,5.27
2019-03-21T08:32:53.292Z,4.95
2019-03-21T08:35:21.837Z,5.70
2019-03-21T08:37:50.327Z,5.65
2019-03-21T08:40:18.879Z,5.47
2019-03-21T08:42:47.441Z,6.23
2019-03-21T08:45:16.008Z,5.90
2019-03-21T08:47:44.581Z,5.40
2019-03-21T08:50:13.770Z,4.80
2019-03-21T08:52:42.330Z,5.10
2019-03-21T08:55:11.154Z,5.42
2019-03-21T08:57:39.730Z,4.95
2019-03-21T09:00:15.836Z,5.22
2019-03-21T09:02:44.353Z,4.78
2019-03-21T09:05:12.966Z,5.70
2019-03-21T09:07:41.534Z,5.57
2019-03-21T09:10:11.452Z,6.00
2019-03-21T09:12:42.499Z,6.70
2019-03-21T09:15:10.487Z,8.00
2019-03-21T09:17:39.050Z,7.43
2019-03-21T09:20:08.643Z,7.40
2019-03-21T09:22:37.285Z,7.60
2019-03-21T09:25:09.264Z,7.57
2019-03-21T09:27:37.836Z,7.92
2019-03-21T09:30:09.453Z,7.70
2019-03-21T09:32:38.092Z,7.45
2019-03-21T09:35:07.481Z,7.33
2019-03-21T09:37:36.035Z,7.10
2019-03-21T09:40:07.546Z,7.20
2019-03-21T09:42:36.453Z,7.30
2019-03-21T09:45:07.045Z,6.78
2019-03-21T09:47:35.613Z,7.10
2019-03-21T09:50:06.608Z,6.85
2019-03-21T09:52:35.175Z,6.77
2019-03-21T09:55:05.657Z,6.80
2019-03-21T09:57:34.156Z,6.53
2019-03-21T10:00:02.807Z,6.80
2019-03-21T10:02:31.383Z,5.80
2019-03-21T10:04:59.917Z,5.95
2019-03-21T10:07:28.405Z,6.00
2019-03-21T10:09:57.024Z,5.90
2019-03-21T10:12:25.603Z,5.90
2019-03-21T10:14:54.147Z,6.20
2019-03-21T10:17:22.700Z,5.90
2019-03-21T10:19:51.265Z,5.80
2019-03-21T10:22:19.809Z,6.12
2019-03-21T10:24:48.377Z,6.10
2019-03-21T10:27:16.848Z,6.20
2019-03-21T10:29:45.408Z,6.00
2019-03-21T10:32:14.768Z,6.20
2019-03-21T10:34:43.484Z,5.90
2019-03-21T10:37:12.139Z,5.53
2019-03-21T10:39:40.649Z,5.73
2019-03-21T10:42:09.201Z,5.20
2019-03-21T10:44:37.768Z,5.33
2019-03-21T10:47:06.237Z,5.90
2019-03-21T10:49:34.815Z,5.30
2019-03-21T10:52:03.368Z,5.30
2019-03-21T10:54:31.934Z,5.30
2019-03-21T10:57:00.486Z,6.07
2019-03-21T10:59:29.060Z,5.80
2019-03-21T11:02:06.845Z,5.23
2019-03-21T11:04:27.827Z,6.28
2019-03-21T11:07:02.289Z,5.72
2019-03-21T11:09:31.005Z,5.83
2019-03-21T11:12:00.029Z,6.17
2019-03-21T11:14:28.895Z,6.50
2019-03-21T11:16:57.718Z,5.67
2019-03-21T11:19:26.565Z,5.87
2019-03-21T11:22:05.846Z,5.80
2019-03-21T11:24:25.724Z,5.70
2019-03-21T11:26:54.278Z,5.80
2019-03-21T11:29:22.837Z,5.30
2019-03-21T11:31:51.309Z,5.30
2019-03-21T11:34:19.797Z,5.10
2019-03-21T11:36:48.274Z,5.60
2019-03-21T11:39:16.841Z,5.70
2019-03-21T11:41:45.376Z,5.37
2019-03-21T11:44:13.961Z,4.72
2019-03-21T11:46:42.494Z,5.00
2019-03-21T11:49:11.052Z,4.73
2019-03-21T11:51:40.213Z,5.10
2019-03-21T11:54:08.781Z,5.80
2019-03-21T11:56:37.285Z,5.20
2019-03-21T11:59:05.812Z,4.87
2019-03-21T12:01:34.305Z,5.20
2019-03-21T12:04:02.777Z,5.10
2019-03-21T12:06:31.270Z,4.95
2019-03-21T12:08:59.815Z,5.00
2019-03-21T12:11:28.374Z,5.00
2019-03-21T12:13:56.925Z,4.70
2019-03-21T12:16:25.493Z,4.90
2019-03-21T12:18:54.038Z,4.80
2019-03-21T12:21:22.595Z,4.80
2019-03-21T12:23:51.420Z,4.97
2019-03-21T12:26:19.995Z,4.75
2019-03-21T12:28:48.543Z,4.40
2019-03-21T12:31:17.108Z,4.70
2019-03-21T12:33:45.657Z,4.60
2019-03-21T12:36:14.344Z,4.50
2019-03-21T12:38:42.889Z,4.50
2019-03-21T12:41:11.390Z,4.30
2019-03-21T12:43:39.861Z,4.40
2019-03-21T12:46:08.502Z,4.50
2019-03-21T12:48:36.978Z,4.67
2019-03-21T12:51:05.546Z,4.20
2019-03-21T12:53:34.081Z,4.50
2019-03-21T12:56:02.656Z,3.90
2019-03-21T12:58:31.190Z,4.20
2019-03-21T13:00:59.755Z,4.17
2019-03-21T13:03:28.311Z,4.12
2019-03-21T13:05:57.138Z,3.90
2019-03-21T13:08:33.665Z,3.80
2019-03-21T13:10:55.912Z,4.40
2019-03-21T13:13:24.474Z,5.00
2019-03-21T13:15:53.021Z,5.42
2019-03-21T13:18:21.488Z,5.20
2019-03-21T13:20:49.988Z,4.60
2019-03-21T13:23:18.538Z,4.60
2019-03-21T13:25:47.111Z,4.30
2019-03-21T13:28:16.250Z,4.30
2019-03-21T13:30:44.814Z,4.10
2019-03-21T13:33:13.366Z,4.40
2019-03-21T13:35:41.933Z,4.30
2019-03-21T13:38:11.106Z,4.80
2019-03-21T13:40:39.665Z,4.50
2019-03-21T13:43:08.234Z,4.70
2019-03-21T13:45:36.752Z,4.60
2019-03-21T13:48:10.630Z,5.05
2019-03-21T13:50:39.204Z,5.10
2019-03-21T13:53:18.201Z,5.17
2019-03-21T13:55:38.025Z,5.13
2019-03-21T13:58:06.498Z,5.20
2019-03-21T14:00:35.148Z,5.12
2019-03-21T14:03:03.725Z,5.28
2019-03-21T14:05:32.384Z,5.00
2019-03-21T14:08:00.949Z,4.90
2019-03-21T14:10:32.070Z,5.20
2019-03-21T14:12:59.625Z,5.40
2019-03-21T14:15:28.164Z,5.10
2019-03-21T14:17:56.654Z,5.30
2019-03-21T14:20:25.198Z,5.20
2019-03-21T14:22:53.785Z,5.50
2019-03-21T14:25:22.320Z,5.10
2019-03-21T14:27:50.817Z,5.40
2019-03-21T14:30:19.426Z,5.60
2019-03-21T14:32:47.916Z,5.37
2019-03-21T14:35:17.072Z,5.22
2019-03-21T14:37:45.552Z,5.17
2019-03-21T14:40:15.361Z,5.50
2019-03-21T14:42:44.193Z,5.10
2019-03-21T14:45:15.276Z,5.40
2019-03-21T14:47:43.900Z,4.78
2019-03-21T14:50:17.286Z,5.10
2019-03-21T14:52:46.220Z,4.53
2019-03-21T14:55:15.506Z,5.30
2019-03-21T14:57:44.072Z,4.62
2019-03-21T15:00:15.723Z,4.42
2019-03-21T15:02:44.281Z,4.47
2019-03-21T15:05:13.875Z,4.65
2019-03-21T15:07:42.506Z,4.70
2019-03-21T15:10:15.817Z,4.45
2019-03-21T15:12:44.459Z,4.70
2019-03-21T15:15:15.218Z,4.05
2019-03-21T15:17:43.861Z,3.90
2019-03-21T15:20:16.916Z,4.20
2019-03-21T15:22:45.481Z,4.20
2019-03-21T15:25:14.375Z,4.00
2019-03-21T15:27:43.075Z,4.13
2019-03-21T15:30:19.711Z,4.13
2019-03-21T15:32:48.321Z,3.92
2019-03-21T15:35:17.852Z,3.77
2019-03-21T15:37:46.599Z,4.10
2019-03-21T15:40:16.021Z,4.20
2019-03-21T15:42:44.670Z,4.20
2019-03-21T15:45:22.665Z,3.83
2019-03-21T15:47:48.154Z,3.90
2019-03-21T15:50:38.143Z,3.87
2019-03-21T15:53:07.178Z,4.10
2019-03-21T15:55:35.902Z,3.80
2019-03-21T15:58:04.776Z,4.00
2019-03-21T16:00:41.590Z,3.73
2019-03-21T16:03:11.317Z,3.70
2019-03-21T16:05:40.454Z,3.90
2019-03-21T16:08:09.462Z,3.30
2019-03-21T16:10:38.205Z,4.00
2019-03-21T16:13:08.664Z,3.90
2019-03-21T16:15:37.196Z,3.60
2019-03-21T16:18:05.868Z,3.30
2019-03-21T16:20:34.674Z,3.77
2019-03-21T16:23:03.420Z,3.40
2019-03-21T16:25:32.045Z,3.90
2019-03-21T16:28:00.520Z,3.90
2019-03-21T16:30:29.087Z,4.20
2019-03-21T16:32:57.634Z,4.80
2019-03-21T16:35:26.373Z,4.12
2019-03-21T16:37:54.855Z,4.10
2019-03-21T16:40:23.494Z,4.00
2019-03-21T16:42:51.965Z,3.80
2019-03-21T16:45:21.424Z,3.77
2019-03-21T16:47:50.099Z,3.97
2019-03-21T16:50:18.661Z,4.07
2019-03-21T16:52:47.138Z,4.30
2019-03-21T16:55:15.717Z,3.90
2019-03-21T16:57:44.324Z,3.80
2019-03-21T17:00:19.886Z,4.30
2019-03-21T17:02:48.616Z,4.00
2019-03-21T17:05:17.250Z,3.57
2019-03-21T17:07:45.793Z,3.80
2019-03-21T17:10:15.703Z,3.60
2019-03-21T17:12:44.276Z,4.25
2019-03-21T17:15:13.974Z,3.60
2019-03-21T17:17:42.474Z,4.10
2019-03-21T17:20:12.165Z,4.13
2019-03-21T17:22:40.732Z,4.50
2019-03-21T17:25:09.614Z,4.50
2019-03-21T17:27:38.164Z,4.55
2019-03-21T17:30:14.390Z,4.80
2019-03-21T17:32:43.062Z,4.55
2019-03-21T17:35:12.078Z,4.37
2019-03-21T17:37:40.632Z,5.00
2019-03-21T17:40:13.959Z,4.42
2019-03-21T17:42:42.523Z,4.37
2019-03-21T17:45:14.121Z,4.62
2019-03-21T17:47:42.757Z,4.03
2019-03-21T17:50:13.641Z,4.40
2019-03-21T17:52:42.343Z,5.20
2019-03-21T17:55:12.937Z,5.30
2019-03-21T17:57:41.640Z,5.60
2019-03-21T18:00:16.126Z,5.40
2019-03-21T18:02:45.449Z,4.80
2019-03-21T18:05:14.258Z,5.62
2019-03-21T18:07:42.815Z,5.20
2019-03-21T18:10:17.417Z,5.00
2019-03-21T18:12:45.971Z,5.70
2019-03-21T18:15:14.592Z,5.00
2019-03-21T18:17:43.140Z,5.15
2019-03-21T18:20:11.634Z,5.20
2019-03-21T18:22:40.177Z,5.37
2019-03-21T18:25:09.014Z,4.85
2019-03-21T18:27:37.663Z,4.63
2019-03-21T18:30:07.670Z,5.20
2019-03-21T18:32:36.209Z,5.28
2019-03-21T18:35:06.146Z,5.50
2019-03-21T18:37:34.910Z,5.30
2019-03-21T18:40:03.698Z,5.10
2019-03-21T18:42:32.329Z,5.60
2019-03-21T18:45:00.842Z,5.50
2019-03-21T18:47:29.390Z,4.80
2019-03-21T18:49:57.910Z,4.80
2019-03-21T18:52:26.450Z,4.73
2019-03-21T18:55:05.754Z,5.00
2019-03-21T18:57:25.201Z,4.50
2019-03-21T18:59:54.434Z,4.60
2019-03-21T19:02:22.988Z,3.97
2019-03-21T19:04:52.472Z,4.17
2019-03-21T19:07:20.933Z,4.23
2019-03-21T19:09:49.514Z,4.00
2019-03-21T19:12:17.986Z,4.15
2019-03-21T19:14:46.529Z,4.30
2019-03-21T19:17:15.038Z,4.20
2019-03-21T19:19:43.505Z,3.90
2019-03-21T19:22:12.171Z,4.40
2019-03-21T19:24:40.735Z,3.70
2019-03-21T19:27:09.259Z,4.00
2019-03-21T19:29:37.822Z,3.90
2019-03-21T19:32:06.394Z,4.00
2019-03-21T19:34:34.992Z,3.80
2019-03-21T19:37:03.554Z,3.90
2019-03-21T19:39:32.092Z,3.97
2019-03-21T19:42:00.587Z,4.37
2019-03-21T19:44:29.133Z,4.20
2019-03-21T19:46:57.693Z,4.17
2019-03-21T19:49:26.168Z,4.28
2019-03-21T19:51:54.800Z,4.30
2019-03-21T19:54:23.269Z,4.12
2019-03-21T19:56:51.757Z,4.57
2019-03-21T19:59:20.232Z,4.50
2019-03-21T20:01:48.803Z,4.97
2019-03-21T20:04:17.337Z,4.87
2019-03-21T20:06:45.902Z,4.90
2019-03-21T20:09:14.393Z,4.87
2019-03-21T20:11:42.893Z,6.47
2019-03-21T20:14:11.505Z,5.90
2019-03-21T20:16:40.025Z,5.17
2019-03-21T20:19:08.564Z,9.55
2019-03-21T20:21:47.402Z,6.90
2019-03-21T20:24:07.253Z,8.25
2019-03-21T20:26:35.754Z,6.60
2019-03-21T20:29:04.384Z,5.70
2019-03-21T20:31:32.971Z,5.70
2019-03-21T20:34:01.517Z,5.67
2019-03-21T20:36:30.080Z,6.00
2019-03-21T20:38:58.630Z,5.20
2019-03-21T20:41:27.300Z,5.45
2019-03-21T20:43:55.769Z,5.60
2019-03-21T20:46:24.262Z,5.28
2019-03-21T20:48:51.796Z,6.03
2019-03-21T20:51:20.395Z,6.20
2019-03-21T20:53:48.941Z,6.20
2019-03-21T20:56:17.435Z,6.00
2019-03-21T20:58:45.987Z,6.33
2019-03-21T21:01:14.553Z,6.87
2019-03-21T21:03:43.105Z,7.67
2019-03-21T21:06:11.600Z,8.53
2019-03-21T21:08:40.269Z,7.83
2019-03-21T21:11:09.008Z,7.03
2019-03-21T21:13:37.496Z,7.20
2019-03-21T21:16:05.991Z,7.40
2019-03-21T21:18:34.549Z,8.50
2019-03-21T21:21:03.241Z,7.15
2019-03-21T21:23:31.752Z,7.30
2019-03-21T21:26:05.330Z,7.40
2019-03-21T21:28:30.501Z,6.80
2019-03-21T21:30:59.050Z,7.72
2019-03-21T21:33:27.613Z,7.20
2019-03-21T21:35:56.217Z,8.18
2019-03-21T21:38:24.709Z,7.67
2019-03-21T21:40:53.267Z,8.40
2019-03-21T21:43:21.850Z,8.60
2019-03-21T21:45:50.386Z,9.77
2019-03-21T21:48:19.046Z,13.60
2019-03-21T21:51:06.941Z,8.13
2019-03-21T21:53:35.505Z,7.80
2019-03-21T21:56:04.049Z,7.72
2019-03-21T21:58:32.620Z,8.40
2019-03-21T22:01:01.091Z,7.47
2019-03-21T22:03:29.806Z,7.83
2019-03-21T22:05:58.335Z,7.60
2019-03-21T22:08:26.825Z,8.45
2019-03-21T22:10:55.373Z,17.20
2019-03-21T22:13:23.971Z,17.97
2019-03-21T22:15:52.510Z,20.80
2019-03-21T22:18:21.013Z,14.63
2019-03-21T22:20:49.492Z,13.70
2019-03-21T22:23:18.065Z,10.70
2019-03-21T22:25:46.611Z,9.90
2019-03-21T22:28:15.176Z,8.75
2019-03-21T22:30:43.723Z,8.53
2019-03-21T22:33:12.304Z,7.90
2019-03-21T22:35:40.858Z,8.15
2019-03-21T22:38:09.409Z,8.90
2019-03-21T22:40:37.873Z,9.40
2019-03-21T22:43:06.380Z,10.90
2019-03-21T22:45:34.947Z,10.25
2019-03-21T22:48:03.596Z,10.60
2019-03-21T22:50:32.171Z,10.30
2019-03-21T22:53:00.706Z,10.17
2019-03-21T22:55:29.257Z,10.18
2019-03-21T22:57:57.762Z,10.30
2019-03-21T23:00:40.015Z,9.90
2019-03-21T23:03:08.754Z,10.23
2019-03-21T23:05:37.306Z,10.88
2019-03-21T23:08:06.021Z,10.20
2019-03-21T23:10:34.565Z,10.20
2019-03-21T23:13:03.084Z,9.70
2019-03-21T23:15:31.625Z,9.40
2019-03-21T23:18:00.112Z,9.53
2019-03-21T23:20:28.669Z,10.90
2019-03-21T23:22:57.382Z,10.75
2019-03-21T23:25:25.858Z,11.85
2019-03-21T23:27:54.429Z,12.20
2019-03-21T23:30:22.985Z,12.67
2019-03-21T23:32:51.552Z,11.70
2019-03-21T23:35:20.102Z,11.00
2019-03-21T23:37:48.675Z,10.23
2019-03-21T23:40:17.291Z,9.13
2019-03-21T23:42:45.854Z,10.60
2019-03-21T23:45:14.970Z,10.43
2019-03-21T23:47:43.659Z,8.97
2019-03-21T23:50:13.548Z,8.70
2019-03-21T23:52:42.188Z,8.70
2019-03-21T23:55:12.100Z,12.83
2019-03-21T23:57:40.669Z,16.17
